Date,TemperatureHighF,TemperatureAvgF,TemperatureLowF,DewpointHighF,DewpointAvgF,DewpointLowF,HumidityHigh,HumidityAvg,HumidityLow,PressureMaxIn,PressureMinIn,WindSpeedMaxMPH,WindSpeedAvgMPH,GustSpeedMaxMPH,PrecipitationSumIn
2014-1-1,44.5,31.4,19.9,24.3,19.3,12.6,82,62,38,30.39,30.13,5,1,12,0.00
2014-1-2,34.3,29.1,24.7,28.5,24.6,20.4,90,83,74,30.13,29.68,4,0,10,0.19
2014-1-3,25.1,14.4,3.9,20.7,-0.0,-6.1,84,54,33,30.53,29.70,13,5,26,0.00
2014-1-4,30.1,17.7,0.5,10.2,3.3,-5.6,79,55,38,30.51,30.26,7,2,19,0.00
2014-1-5,32.4,22.2,9.3,30.6,17.4,4.1,93,82,59,30.28,29.63,2,0,5,0.40
2014-1-6,43.2,29.1,3.5,39.6,16.4,-17.8,95,61,33,30.12,29.47,15,9,33,0.13
2014-1-7,10.2,4.2,-1.2,-8.7,-14.6,-19.9,47,41,34,30.49,30.12,13,7,26,0.00
2014-1-8,24.7,16.3,4.8,11.2,-0.6,-8.8,63,48,33,30.62,30.49,2,0,8,0.00
2014-1-9,37.2,26.9,19.2,20.5,15.7,11.2,79,63,44,30.66,30.51,2,0,7,0.00
2014-1-10,40.1,34.1,29.8,34.2,29.3,18.4,92,83,58,30.54,30.13,2,0,8,0.28
2014-1-11,54.8,41.4,33.7,51.4,38.6,31.9,96,90,61,30.12,29.36,10,2,26,0.30
2014-1-12,46.0,39.9,28.4,34.1,27.2,23.3,81,61,51,30.11,29.58,10,4,26,0.00
2014-1-13,51.6,39.1,23.9,36.3,28.7,20.9,93,69,47,30.10,29.83,6,1,16,0.01
2014-1-14,49.5,43.5,30.0,44.5,39.0,27.4,93,84,62,29.91,29.70,4,1,14,0.25
2014-1-15,45.4,34.0,25.3,38.9,27.6,21.7,94,79,53,29.99,29.90,7,1,17,0.01
2014-1-16,35.3,30.3,24.4,20.5,15.6,11.5,76,55,43,30.05,29.90,7,2,17,0.00
2014-1-17,46.7,34.3,23.3,25.1,22.1,17.4,85,62,40,29.95,29.84,3,1,10,0.00
2014-1-18,31.8,23.3,15.7,28.7,11.0,3.0,89,60,42,30.02,29.84,10,4,22,0.02
2014-1-19,39.5,27.9,16.7,23.1,15.1,6.3,72,59,45,29.97,29.72,10,1,22,0.00
2014-1-20,46.8,38.3,32.9,26.6,23.2,19.2,64,55,43,29.89,29.66,12,4,29,0.00
2014-1-21,35.6,23.9,9.9,25.2,17.1,-2.7,87,75,56,29.97,29.81,9,5,20,0.21
2014-1-22,14.4,7.3,0.1,-3.7,-7.8,-10.9,60,50,35,30.13,29.97,8,2,17,0.00
2014-1-23,21.6,8.9,-3.7,7.1,-4.3,-10.6,77,56,38,30.48,30.12,9,2,21,0.00
2014-1-24,19.2,11.6,3.5,-2.8,-6.5,-9.6,55,44,31,30.55,30.04,8,3,18,0.00
2014-1-25,31.3,24.0,17.0,20.6,5.2,-5.4,71,44,36,30.02,29.44,11,5,31,0.00
2014-1-26,31.2,22.1,11.7,9.9,2.6,-3.1,57,43,35,29.92,29.69,13,3,29,0.00
2014-1-27,34.9,22.9,12.8,24.3,6.6,-7.7,73,51,33,30.24,29.63,15,4,29,0.00
2014-1-28,12.6,9.0,4.3,-0.6,-10.4,-14.2,61,40,33,30.49,30.24,8,2,17,0.00
2014-1-29,20.3,11.9,3.0,0.2,-7.2,-15.0,68,43,28,30.39,30.26,8,2,20,0.00
2014-1-30,30.0,17.2,-0.2,4.1,-2.3,-8.7,72,43,29,30.49,30.15,6,2,17,0.00
2014-1-31,44.9,31.8,24.7,20.4,12.2,3.8,66,46,25,30.23,30.10,6,1,14,0.00
2014-2-1,48.9,37.1,25.4,23.8,18.8,12.7,83,52,27,30.28,29.98,7,2,18,0.00
2014-2-2,53.8,40.5,28.4,38.5,29.9,20.3,82,67,46,30.10,29.92,9,1,20,0.00
2014-2-3,39.3,33.5,30.6,34.9,30.4,24.2,93,88,77,30.35,30.06,7,2,16,1.19
2014-2-4,30.9,27.0,20.0,24.0,19.8,16.2,88,74,64,30.50,30.20,4,1,10,0.09
2014-2-5,38.5,32.1,27.0,32.9,27.4,17.7,93,83,59,30.20,29.69,13,3,29,1.23
2014-2-6,32.4,26.4,22.1,18.6,13.0,10.6,70,57,42,30.38,30.15,12,3,27,0.00
2014-2-7,34.6,27.8,21.4,16.0,12.9,7.1,72,54,40,30.37,30.28,6,2,16,0.00
2014-2-8,29.4,22.8,16.4,14.0,10.3,6.4,80,59,43,30.37,30.22,2,0,7,0.00
2014-2-9,29.5,24.8,16.1,24.5,18.9,11.3,88,78,59,30.23,29.99,4,0,11,0.07
2014-2-10,26.6,22.0,13.3,21.0,7.4,2.3,83,53,41,30.38,30.09,8,3,21,0.00
2014-2-11,27.3,14.9,4.7,7.3,3.1,-0.9,83,61,37,30.52,30.36,7,1,13,0.00
2014-2-12,25.0,14.2,2.0,15.2,3.6,-4.1,84,65,38,30.57,30.23,3,1,8,0.06
2014-2-13,35.2,28.1,18.3,29.8,24.3,14.3,91,86,70,30.23,29.38,13,6,30,0.41
2014-2-14,44.6,36.0,29.3,28.1,20.5,14.4,77,54,38,29.74,29.41,14,4,29,0.00
2014-2-15,35.2,31.5,23.9,30.3,22.8,6.6,89,71,47,29.99,29.63,14,5,32,0.02
2014-2-16,29.4,24.2,18.9,19.8,11.1,3.7,85,58,45,30.23,29.97,10,1,21,0.00
2014-2-17,32.4,23.2,8.8,15.6,5.9,1.7,75,49,32,30.49,30.19,10,2,25,0.00
2014-2-18,52.5,34.7,23.8,27.0,23.5,20.2,87,66,35,30.21,30.00,9,3,24,0.19
2014-2-19,54.8,38.4,26.0,38.9,27.9,20.2,90,68,33,30.14,29.73,17,3,36,0.24
2014-2-20,51.1,38.8,23.5,27.6,23.1,19.7,88,57,32,30.24,29.90,7,2,17,0.00
2014-2-21,52.6,44.1,37.2,49.7,31.0,20.4,93,63,33,29.98,29.67,10,2,27,0.47
2014-2-22,56.7,46.1,30.7,24.2,19.3,15.7,72,36,21,30.08,29.98,11,3,26,0.00
2014-2-23,53.1,40.1,27.9,35.3,26.9,20.4,83,62,38,30.03,29.90,9,1,24,0.02
2014-2-24,37.5,32.7,27.2,28.7,12.1,5.5,71,43,30,30.15,29.94,14,5,30,0.00
2014-2-25,33.7,28.1,24.8,16.1,10.6,5.3,60,48,38,30.14,30.01,9,3,20,0.00
2014-2-26,28.4,25.1,14.6,19.9,8.3,0.6,77,50,31,30.02,29.88,12,4,26,0.00
2014-2-27,31.3,19.0,10.2,8.8,2.6,-8.0,75,51,29,30.20,29.72,16,6,41,0.00
2014-2-28,27.6,15.1,3.4,0.3,-6.2,-11.1,62,39,22,30.47,30.21,5,1,13,0.00
2014-3-1,41.2,27.4,11.7,21.1,9.7,-2.1,67,48,32,30.39,30.16,7,1,17,0.00
2014-3-2,40.6,35.4,29.8,34.1,27.4,19.7,91,73,51,30.16,30.03,4,1,12,0.28
2014-3-3,29.0,16.4,0.0,25.3,3.9,-6.9,87,60,37,30.41,30.04,10,5,20,0.13
2014-3-4,32.4,14.3,-2.8,6.6,-0.5,-9.6,79,55,28,30.48,30.27,3,0,11,0.00
2014-3-5,42.3,26.5,9.7,14.5,9.1,3.3,81,51,29,30.45,30.22,10,2,22,0.00
2014-3-6,34.6,26.0,18.0,12.8,9.6,5.8,61,50,37,30.61,30.39,8,2,14,0.00
2014-3-7,42.9,31.9,26.1,27.1,20.8,11.4,83,64,51,30.39,29.97,6,2,12,0.00
2014-3-8,59.0,39.1,21.1,34.4,26.8,17.6,91,65,33,30.00,29.88,3,0,10,0.00
2014-3-9,43.6,37.9,32.8,32.7,19.6,12.1,71,49,32,30.15,29.94,12,5,24,0.00
2014-3-10,66.4,50.1,33.1,33.2,25.9,16.6,58,40,28,30.01,29.61,8,2,19,0.00
2014-3-11,71.8,57.9,45.4,39.9,35.6,29.4,67,44,31,29.69,29.58,6,2,17,0.00
2014-3-12,61.5,44.7,27.3,49.6,35.4,14.1,92,71,40,29.62,29.01,20,4,38,0.20
2014-3-13,29.7,23.4,14.6,14.0,2.5,-4.6,62,41,30,30.19,29.53,16,10,32,0.00
2014-3-14,57.5,41.3,23.9,23.5,13.8,3.6,49,33,25,30.20,29.82,11,5,25,0.00
2014-3-15,59.3,52.2,42.8,34.7,24.9,20.1,56,35,24,30.06,29.76,15,6,28,0.00
2014-3-16,42.2,34.4,25.6,25.0,17.1,8.0,79,51,28,30.21,30.06,10,4,21,0.00
2014-3-17,30.7,26.3,21.3,21.9,18.9,15.0,87,74,61,30.12,30.04,7,2,13,0.15
2014-3-18,45.2,36.4,29.4,22.2,19.1,12.2,72,51,36,30.23,30.10,5,1,12,0.00
2014-3-19,42.2,38.6,35.5,38.5,31.9,21.2,91,78,48,30.22,29.86,2,0,8,0.06
2014-3-20,51.3,44.4,37.6,38.0,27.9,21.1,94,56,33,30.00,29.82,16,6,31,0.01
2014-3-21,53.5,41.1,27.8,34.8,27.4,21.5,85,59,40,30.08,30.00,8,1,16,0.00
2014-3-22,65.0,47.8,33.2,36.0,29.8,26.2,89,56,26,30.04,29.82,14,4,33,0.00
2014-3-23,43.2,37.7,27.9,26.7,18.6,5.4,63,47,29,30.22,30.03,11,4,24,0.00
2014-3-24,38.5,26.3,17.7,8.2,4.2,0.6,57,39,24,30.35,30.15,12,4,22,0.00
2014-3-25,34.6,27.5,22.5,28.6,19.9,8.9,85,74,47,30.16,29.90,3,1,10,0.12
2014-3-26,33.2,26.4,21.8,20.8,9.2,2.5,90,51,30,30.34,29.93,14,6,31,0.00
2014-3-27,46.7,32.5,14.0,19.8,13.0,5.6,81,47,32,30.43,30.13,10,3,21,0.00
2014-3-28,63.9,53.2,44.9,49.5,38.1,17.9,86,59,32,30.13,29.92,10,6,24,0.10
2014-3-29,56.0,48.2,44.1,47.1,43.7,40.1,94,84,71,30.09,29.59,11,4,21,1.20
2014-3-30,45.1,40.7,34.1,43.5,35.6,30.1,94,83,61,29.87,29.58,20,9,35,0.93
2014-3-31,65.5,49.6,37.6,30.1,27.9,26.0,63,46,24,30.11,29.87,16,8,32,0.00
2014-4-1,68.1,46.9,30.3,36.7,30.9,24.9,84,57,31,30.17,29.93,5,1,13,0.00
2014-4-2,65.2,51.5,41.2,47.4,40.8,33.9,84,68,47,30.12,29.98,7,1,16,0.00
2014-4-3,62.1,53.8,49.2,47.6,40.4,31.3,84,63,33,30.10,29.92,5,2,12,0.06
2014-4-4,54.1,49.8,46.5,46.3,42.1,35.7,90,75,64,29.94,29.67,6,2,16,0.04
2014-4-5,49.8,45.3,38.0,44.5,30.7,23.6,93,59,40,30.20,29.73,11,5,29,0.00
2014-4-6,61.8,42.5,25.0,25.9,22.8,18.6,87,50,21,30.28,30.12,7,1,16,0.00
2014-4-7,46.8,41.9,38.5,43.3,33.9,21.8,93,76,37,30.16,29.60,6,1,14,0.50
2014-4-8,60.1,50.6,40.5,46.1,39.7,33.2,94,69,39,29.69,29.46,14,4,31,0.00
2014-4-9,62.7,46.7,29.8,37.8,29.3,24.0,93,57,25,30.05,29.69,11,3,27,0.00
2014-4-10,70.9,53.1,29.0,36.5,30.1,23.6,88,46,26,30.20,29.95,10,4,22,0.00
2014-4-11,76.3,61.1,50.7,53.5,41.8,31.6,91,53,30,30.04,29.91,15,2,26,0.10
2014-4-12,76.3,58.6,38.5,50.2,39.1,31.0,95,58,19,30.25,30.04,9,2,25,0.00
2014-4-13,83.0,69.5,54.1,53.8,49.9,44.4,81,52,32,30.09,29.90,10,5,22,0.00
2014-4-14,75.8,69.9,63.9,55.5,52.2,50.3,63,54,44,29.91,29.73,11,8,25,0.00
2014-4-15,69.1,52.3,33.4,60.7,44.8,15.8,94,77,48,30.09,29.50,14,7,31,0.95
2014-4-16,48.8,36.3,27.6,19.1,14.3,9.6,54,41,27,30.55,30.09,15,5,27,0.00
2014-4-17,58.6,42.9,27.5,31.9,24.1,16.1,69,49,31,30.66,30.52,6,2,17,0.00
2014-4-18,57.6,44.7,32.9,35.2,31.3,25.7,79,61,38,30.59,30.27,4,1,12,0.00
2014-4-19,67.1,51.5,35.6,41.6,31.7,24.4,90,53,20,30.32,30.23,10,3,21,0.00
2014-4-20,68.8,54.9,43.6,38.1,30.1,21.6,55,39,28,30.42,30.28,9,2,17,0.00
2014-4-21,72.3,52.7,33.2,36.3,31.7,27.2,88,50,20,30.27,29.85,5,1,12,0.00
2014-4-22,72.3,55.7,43.2,57.3,46.4,35.3,93,72,49,29.85,29.54,10,1,26,0.16
2014-4-23,53.1,47.6,44.2,39.3,34.9,29.6,70,61,54,30.00,29.71,15,7,28,0.00
2014-4-24,65.6,49.0,36.9,33.0,26.1,21.3,67,43,21,30.15,29.99,8,2,18,0.00
2014-4-25,67.1,51.5,37.9,50.9,40.8,30.9,95,71,35,30.02,29.71,7,1,18,0.51
2014-4-26,74.0,58.7,45.4,50.9,42.4,32.3,96,58,31,29.92,29.71,13,5,31,0.00
2014-4-27,66.3,51.4,36.6,39.5,35.1,31.1,83,56,32,30.11,29.92,6,2,14,0.00
2014-4-28,61.2,51.8,43.9,49.7,40.5,34.4,95,67,44,30.12,29.96,5,1,13,0.26
2014-4-29,49.9,47.9,46.5,48.1,45.2,42.1,95,90,81,30.22,30.03,7,2,20,0.74
2014-4-30,56.3,50.4,45.8,54.6,48.7,43.6,97,94,90,30.19,29.84,5,1,17,1.00
2014-5-1,73.2,60.3,50.8,58.8,50.8,40.0,98,74,42,29.86,29.71,8,1,18,0.03
2014-5-2,64.3,54.2,40.8,42.8,39.6,37.5,89,60,39,29.88,29.79,10,3,20,0.00
2014-5-3,70.8,54.5,40.2,48.0,42.8,37.9,93,69,35,29.89,29.71,11,1,27,0.00
2014-5-4,66.4,54.0,41.8,49.1,42.6,32.7,96,68,45,29.96,29.74,12,3,26,0.00
2014-5-5,65.3,52.1,36.2,43.6,36.5,31.3,87,58,34,30.08,29.89,7,1,13,0.00
2014-5-6,76.1,58.6,45.2,46.9,43.0,36.7,93,61,27,30.03,29.88,3,1,11,0.00
2014-5-7,66.9,56.2,47.0,54.7,44.2,32.6,93,66,39,30.26,30.05,7,1,18,0.37
2014-5-8,87.0,64.6,46.5,62.9,55.1,45.4,97,75,40,30.16,29.97,2,0,8,0.00
2014-5-9,82.2,69.3,58.4,64.1,60.0,56.4,94,74,44,30.09,29.89,3,1,12,0.02
2014-5-10,75.6,68.0,59.3,63.6,60.5,56.9,93,78,54,29.96,29.89,7,1,18,0.24
2014-5-11,82.2,65.0,51.6,58.4,52.7,47.7,96,70,32,30.13,29.95,5,1,14,0.00
2014-5-12,84.3,68.0,52.5,64.7,58.8,50.5,95,75,49,30.12,30.03,5,0,18,0.01
2014-5-13,90.5,73.6,61.3,69.3,64.8,59.3,97,77,44,30.14,30.01,3,0,12,0.16
2014-5-14,68.8,64.2,59.9,63.8,59.8,56.3,91,86,81,30.20,30.11,5,1,12,0.00
2014-5-15,79.2,69.6,65.0,67.2,64.4,62.5,96,84,64,30.12,29.85,7,2,25,0.98
2014-5-16,66.9,59.2,49.6,66.0,51.8,43.6,98,78,50,29.96,29.74,10,2,39,3.24
2014-5-17,64.8,54.0,43.2,47.9,41.5,33.5,96,66,32,30.18,29.96,7,2,19,0.00
2014-5-18,63.5,51.3,38.9,43.9,40.0,34.4,96,69,35,30.27,30.19,7,2,16,0.00
2014-5-19,73.0,54.1,35.3,45.9,39.9,34.0,97,65,27,30.33,30.15,4,1,14,0.00
2014-5-20,74.4,57.7,41.2,55.2,45.9,39.7,96,69,32,30.22,30.00,1,0,7,0.00
2014-5-21,70.8,63.4,55.9,63.8,58.1,52.4,95,83,73,30.00,29.87,3,0,12,0.00
2014-5-22,83.0,69.2,59.5,66.8,60.2,48.6,98,76,44,29.92,29.75,10,2,27,1.25
2014-5-23,71.3,61.4,50.1,54.0,49.2,44.2,93,66,44,30.05,29.91,10,4,25,0.00
2014-5-24,75.1,60.2,47.9,60.4,51.3,45.7,93,75,44,30.13,30.04,6,1,16,0.02
2014-5-25,80.1,64.4,48.3,58.2,52.2,46.4,98,70,32,30.18,30.08,3,0,14,0.01
2014-5-26,85.3,67.4,49.8,61.1,54.7,48.5,97,69,34,30.14,29.95,3,0,12,0.00
2014-5-27,85.3,69.5,56.9,70.0,63.2,55.6,96,82,55,29.98,29.83,9,0,27,0.06
2014-5-28,81.1,72.0,62.6,68.8,65.9,59.3,97,82,63,30.03,29.84,5,1,17,0.02
2014-5-29,61.3,57.5,55.7,58.3,54.8,53.1,95,91,86,30.18,30.04,5,0,18,0.13
2014-5-30,75.3,62.1,55.0,58.7,55.1,53.5,96,80,48,30.16,30.05,5,1,14,0.00
2014-5-31,78.1,63.9,48.9,55.9,49.6,43.5,97,65,31,30.24,30.12,6,2,18,0.00
2014-6-1,77.7,65.3,51.7,58.7,52.6,47.9,95,66,38,30.34,30.20,3,1,16,0.00
2014-6-2,82.4,70.1,54.5,65.6,58.2,51.0,90,67,51,30.24,30.02,3,1,12,0.00
2014-6-3,85.5,72.1,58.9,69.3,64.3,57.6,97,78,55,30.02,29.81,5,0,14,0.00
2014-6-4,80.5,71.4,61.8,65.1,61.5,56.7,97,74,47,29.88,29.66,2,0,11,0.05
2014-6-5,76.0,66.6,59.0,63.3,56.9,52.1,97,74,46,29.88,29.60,8,3,19,0.39
2014-6-6,77.4,63.7,50.5,55.5,51.5,47.0,92,67,42,29.99,29.86,5,1,14,0.00
2014-6-7,82.6,66.1,49.6,60.2,54.9,48.5,97,71,37,30.05,29.94,2,0,8,0.00
2014-6-8,82.4,68.0,53.8,70.2,61.6,52.7,97,82,54,29.97,29.78,4,1,21,0.97
2014-6-9,81.8,73.0,66.4,69.4,67.2,65.5,98,83,60,29.88,29.81,2,0,8,0.51
2014-6-10,83.8,74.1,68.3,71.9,69.1,67.3,98,86,60,29.92,29.84,1,0,7,0.01
2014-6-11,83.0,71.7,64.7,72.1,67.9,63.8,98,89,66,29.99,29.87,9,1,24,1.27
2014-6-12,77.7,70.4,65.0,70.9,68.2,64.3,99,93,78,29.96,29.80,2,0,12,0.36
2014-6-13,84.1,72.5,65.3,70.9,67.5,60.6,98,86,53,29.86,29.70,10,1,28,0.03
2014-6-14,71.6,64.1,55.9,64.6,55.2,50.6,97,75,54,30.12,29.86,9,3,22,0.00
2014-6-15,82.8,64.7,48.8,62.7,55.7,48.0,98,76,44,30.19,30.06,2,0,10,0.00
2014-6-16,89.0,71.2,55.7,72.8,64.3,54.9,98,81,46,30.14,30.02,3,0,17,0.21
2014-6-17,90.3,78.2,65.0,73.8,70.0,64.1,98,78,52,30.10,29.91,2,0,12,0.00
2014-6-18,90.1,79.7,68.8,74.4,70.7,65.4,92,76,52,30.01,29.92,8,1,20,0.05
2014-6-19,79.0,71.6,65.0,71.3,68.0,63.8,97,89,70,30.03,29.92,7,1,21,0.88
2014-6-20,82.4,69.0,56.5,63.5,57.5,50.8,98,70,41,30.08,29.92,3,1,10,0.00
2014-6-21,67.1,65.2,60.7,62.1,59.3,55.5,94,81,68,29.94,29.87,3,0,10,0.01
2014-6-22,79.8,67.9,56.7,66.2,61.5,55.9,98,82,56,29.99,29.90,2,0,6,0.00
2014-6-23,82.8,71.4,58.7,64.6,61.9,57.8,97,74,52,30.09,29.99,3,1,16,0.00
2014-6-24,85.5,74.9,66.4,72.1,65.8,59.4,93,74,60,30.09,29.95,3,1,18,0.03
2014-6-25,88.6,76.9,69.3,73.3,69.6,66.1,98,79,59,29.95,29.77,7,1,19,1.89
2014-6-26,84.7,75.1,67.3,69.7,66.9,63.7,99,78,50,29.99,29.84,7,2,18,0.00
2014-6-27,87.0,73.6,62.4,70.8,66.4,61.5,98,80,55,30.16,29.99,2,1,10,0.00
2014-6-28,84.5,74.1,62.9,66.7,61.2,52.0,95,67,42,30.26,30.16,2,0,11,0.00
2014-6-29,84.3,74.4,64.0,64.9,61.1,57.4,91,65,43,30.22,30.07,3,0,16,0.00
2014-6-30,88.0,77.0,67.4,73.1,66.9,60.4,86,71,56,30.08,29.89,1,0,10,0.00
2014-7-1,91.6,78.9,70.4,75.9,71.4,67.4,98,79,57,29.92,29.77,10,1,27,1.56
2014-7-2,89.9,76.4,68.9,78.8,72.8,68.6,99,89,61,29.90,29.81,5,0,13,0.01
2014-7-3,89.0,75.2,67.9,75.7,71.0,67.0,98,88,56,29.97,29.86,3,0,12,0.11
2014-7-4,74.7,69.4,60.2,70.0,57.8,51.0,97,68,45,30.19,29.97,12,4,26,0.01
2014-7-5,81.2,65.9,50.2,58.5,53.5,48.8,97,68,34,30.28,30.14,4,0,13,0.00
2014-7-6,84.3,69.8,54.1,67.1,60.4,53.3,98,74,45,30.15,29.92,1,0,8,0.00
2014-7-7,89.5,79.0,69.1,71.7,67.7,64.3,91,70,50,29.92,29.74,3,1,17,0.00
2014-7-8,88.8,77.4,68.8,73.1,68.5,65.8,96,75,58,29.82,29.63,8,1,37,0.21
2014-7-9,87.4,74.7,65.6,71.9,68.1,61.1,98,82,47,29.94,29.80,3,0,12,0.00
2014-7-10,86.1,73.1,62.9,69.5,65.1,61.0,98,78,43,30.12,29.94,11,1,27,0.00
2014-7-11,85.3,73.3,61.6,69.7,65.3,60.4,97,78,47,30.19,30.11,3,0,10,0.00
2014-7-12,86.5,75.4,63.9,76.3,69.2,63.0,98,82,57,30.19,30.05,3,0,12,0.33
2014-7-13,87.2,77.3,67.9,75.0,70.8,66.6,98,81,63,30.05,29.84,6,1,41,0.88
2014-7-14,83.6,72.8,67.4,75.7,71.0,67.1,99,94,72,29.93,29.80,7,0,21,2.17
2014-7-15,81.1,73.7,68.9,75.1,70.7,68.4,99,91,68,29.82,29.70,3,0,8,0.04
2014-7-16,77.2,68.3,58.6,68.2,59.0,54.0,98,75,46,29.95,29.77,5,1,17,0.00
2014-7-17,78.3,65.5,55.4,61.9,57.0,53.2,98,77,43,30.14,29.95,4,1,14,0.00
2014-7-18,79.2,66.5,52.2,66.5,58.9,51.7,99,79,50,30.25,30.14,1,0,7,0.00
2014-7-19,78.8,69.7,63.4,66.6,63.3,60.8,97,81,55,30.21,30.12,1,0,8,0.03
2014-7-20,79.6,70.7,62.4,70.0,64.8,60.8,96,83,63,30.12,30.06,2,0,7,0.00
2014-7-21,82.6,72.9,66.0,71.7,68.0,64.8,97,85,64,30.16,30.09,2,0,8,0.00
2014-7-22,86.5,76.2,64.8,73.7,69.8,63.9,98,82,60,30.17,30.02,2,0,12,0.00
2014-7-23,91.0,78.0,68.3,76.7,72.0,67.1,97,83,60,30.02,29.75,3,0,14,0.00
2014-7-24,79.6,71.0,59.9,69.9,63.9,58.2,97,80,50,29.96,29.84,4,1,12,0.04
2014-7-25,82.8,66.4,52.2,61.2,56.5,51.7,99,74,43,30.09,29.97,4,0,11,0.00
2014-7-26,85.3,71.9,60.9,69.1,62.8,58.9,96,76,46,30.00,29.85,2,0,7,0.04
2014-7-27,86.7,75.1,66.9,74.2,70.1,66.3,98,86,66,29.87,29.61,4,1,13,1.34
2014-7-28,77.0,69.8,65.3,67.7,63.3,58.5,100,82,55,29.84,29.54,9,3,27,0.17
2014-7-29,69.3,62.4,53.6,58.8,54.5,51.3,94,77,54,30.02,29.82,4,1,12,0.00
2014-7-30,77.6,62.8,47.9,61.5,55.5,47.4,99,79,51,30.08,30.00,2,0,11,0.04
2014-7-31,81.6,68.8,56.6,68.4,62.3,56.0,99,82,56,30.10,30.03,2,0,12,0.00
2014-8-1,77.2,68.8,60.2,69.4,64.6,59.3,98,87,71,30.17,30.10,1,0,11,0.00
2014-8-2,80.3,71.5,63.2,68.3,65.2,61.3,95,81,63,30.14,30.04,2,0,10,0.00
2014-8-3,81.8,71.3,62.7,70.6,67.6,62.1,99,89,68,30.07,29.96,7,1,18,0.47
2014-8-4,83.6,69.7,60.7,68.7,64.1,60.1,100,85,52,30.13,30.04,4,0,11,0.01
2014-8-5,87.6,71.4,58.1,71.7,64.0,57.5,99,81,41,30.08,29.92,7,0,20,0.29
2014-8-6,79.6,69.1,62.4,69.4,65.5,62.1,100,89,66,29.96,29.88,3,0,10,0.01
2014-8-7,79.9,69.5,60.1,64.7,61.0,57.0,99,77,48,30.05,29.94,4,1,13,0.00
2014-8-8,79.9,66.4,53.5,67.5,59.3,52.9,99,80,51,30.15,30.05,2,0,7,0.00
2014-8-9,83.8,70.2,58.4,69.1,63.9,57.5,98,82,56,30.12,30.04,2,0,7,0.00
2014-8-10,84.0,72.2,58.7,69.7,64.4,57.9,99,78,55,30.13,30.05,1,0,8,0.00
2014-8-11,79.8,70.0,61.2,66.4,63.3,60.1,97,81,55,30.09,29.99,2,0,12,0.25
2014-8-12,77.7,70.7,65.3,71.5,68.0,63.9,98,91,79,29.99,29.73,3,1,12,0.69
2014-8-13,76.7,69.7,59.6,70.2,63.5,57.0,99,82,59,29.91,29.74,8,2,19,0.17
2014-8-14,78.8,64.8,51.0,63.2,55.5,49.3,98,75,37,29.94,29.84,5,1,19,0.00
2014-8-15,75.8,61.1,47.6,57.9,52.1,46.6,98,76,42,30.02,29.95,4,1,17,0.00
2014-8-16,79.8,62.8,46.1,60.1,54.3,45.6,99,77,44,30.04,29.91,2,0,12,0.00
2014-8-17,84.1,70.3,58.0,68.7,62.2,56.6,97,78,47,29.93,29.86,5,1,17,0.00
2014-8-18,81.6,69.5,57.8,69.0,63.3,57.0,98,82,60,29.92,29.79,1,0,8,0.00
2014-8-19,81.8,72.1,62.7,72.1,66.9,61.8,98,85,67,29.89,29.80,2,0,7,0.00
2014-8-20,83.0,72.1,64.0,72.5,68.1,63.1,98,88,68,29.99,29.88,2,0,14,0.18
2014-8-21,84.3,71.2,62.9,74.4,68.6,62.3,99,92,65,30.04,29.95,3,0,8,0.68
2014-8-22,79.8,70.9,61.8,72.3,68.0,61.5,100,91,75,30.00,29.93,2,0,6,0.00
2014-8-23,71.5,68.2,65.6,69.3,66.6,63.9,98,95,89,30.09,29.94,2,0,10,0.93
2014-8-24,77.6,68.1,60.1,66.5,62.7,59.0,99,84,57,30.15,30.09,2,0,10,0.12
2014-8-25,80.5,66.9,54.1,65.5,59.9,53.8,100,81,47,30.20,30.13,2,0,10,0.00
2014-8-26,83.8,67.4,53.1,66.5,60.9,52.6,99,82,54,30.20,30.08,1,0,5,0.00
2014-8-27,85.7,70.7,56.5,73.3,65.7,56.2,99,86,63,30.09,29.89,1,0,7,0.00
2014-8-28,78.6,70.1,57.2,70.0,61.1,55.2,97,76,46,30.10,29.90,7,2,18,0.00
2014-8-29,78.8,63.7,49.6,60.9,55.6,49.1,99,78,51,30.22,30.10,2,0,7,0.00
2014-8-30,80.7,70.6,57.0,71.3,65.7,55.2,95,85,70,30.20,30.08,2,0,11,0.00
2014-8-31,87.2,77.2,68.3,75.6,72.1,67.4,98,85,59,30.08,29.95,3,0,13,0.00
2014-9-1,88.4,77.5,70.3,74.3,72.0,69.4,98,84,60,30.01,29.90,4,0,14,0.00
2014-9-2,88.0,75.8,69.6,77.4,70.7,67.4,97,85,59,29.95,29.79,3,0,18,0.39
2014-9-3,84.3,73.3,65.5,69.8,66.2,61.7,99,81,48,30.11,29.90,2,0,7,0.00
2014-9-4,86.1,75.4,64.2,72.6,68.3,63.3,99,80,60,30.15,30.05,3,0,14,0.00
2014-9-5,85.7,75.7,67.1,78.5,72.6,66.5,99,91,70,30.13,29.98,3,0,11,0.36
2014-9-6,89.3,73.9,65.8,76.5,70.6,64.3,100,91,60,30.00,29.83,11,1,36,0.79
2014-9-7,76.1,66.8,56.9,63.4,57.2,52.2,97,74,44,30.18,29.98,5,1,14,0.00
2014-9-8,74.7,63.6,52.2,64.8,58.1,51.4,99,84,63,30.25,30.17,3,1,17,0.00
2014-9-9,73.7,66.8,61.3,66.6,62.8,58.0,94,87,77,30.21,30.09,1,0,8,0.00
2014-9-10,78.5,70.4,65.2,67.4,65.0,62.9,93,83,67,30.11,29.93,4,1,13,0.00
2014-9-11,81.8,73.7,64.0,72.9,67.4,58.7,90,81,68,30.01,29.83,5,1,17,0.01
2014-9-12,73.5,62.0,52.3,58.6,55.5,51.8,99,81,55,30.16,30.01,4,1,12,0.01
2014-9-13,67.1,58.1,52.0,60.4,55.8,51.2,98,92,70,30.26,30.10,4,0,12,0.19
2014-9-14,66.4,53.6,42.1,52.9,47.9,41.8,100,83,56,30.35,30.21,4,0,11,0.01
2014-9-15,70.3,56.8,44.3,57.5,51.3,44.0,100,84,53,30.27,30.03,2,0,7,0.00
2014-9-16,71.3,61.3,52.5,59.5,54.8,50.5,99,81,53,30.06,29.99,7,1,17,0.00
2014-9-17,72.1,56.7,43.3,56.7,50.3,42.8,100,82,46,30.09,29.96,1,0,6,0.00
2014-9-18,74.6,59.9,48.2,58.3,51.3,47.7,99,77,42,30.11,29.95,4,1,12,0.00
2014-9-19,71.6,60.2,46.7,58.9,53.6,46.2,99,81,59,30.27,30.11,4,1,11,0.00
2014-9-20,78.5,68.9,61.3,62.3,59.9,57.9,94,75,52,30.25,30.00,3,1,14,0.00
2014-9-21,82.6,67.2,53.8,71.2,61.2,53.2,99,83,57,30.04,29.62,5,1,16,0.04
2014-9-22,66.3,60.2,51.7,53.4,48.8,43.4,87,67,53,30.25,29.74,10,4,21,0.00
2014-9-23,69.8,53.6,38.6,54.2,45.5,37.8,98,77,46,30.39,30.25,2,0,8,0.00
2014-9-24,67.1,55.7,42.5,58.7,51.2,42.0,100,86,69,30.51,30.39,4,1,12,0.07
2014-9-25,68.9,61.3,56.6,63.2,59.2,56.1,99,93,81,30.40,30.24,5,1,12,0.67
2014-9-26,74.0,61.2,49.1,61.1,54.7,48.8,100,82,51,30.28,30.19,6,1,14,0.00
2014-9-27,79.0,60.6,46.1,62.4,54.6,45.6,100,83,50,30.29,30.17,2,0,8,0.01
2014-9-28,76.1,61.8,47.7,64.7,56.7,47.2,100,85,51,30.22,30.03,1,0,6,0.00
2014-9-29,74.2,64.4,56.7,65.6,60.5,56.1,99,88,67,30.03,29.90,1,0,6,0.00
2014-9-30,76.8,64.0,53.8,65.2,60.1,53.5,100,88,64,29.94,29.82,6,0,22,1.20
2014-10-1,68.9,61.7,53.9,63.9,59.7,53.1,100,93,80,30.07,29.93,3,0,11,0.07
2014-10-2,72.0,60.0,51.3,62.5,57.2,51.0,100,91,69,30.14,30.06,2,0,8,0.00
2014-10-3,69.4,63.4,54.2,64.3,60.6,53.6,99,91,78,30.10,29.67,5,2,21,0.21
2014-10-4,66.1,56.9,40.1,64.8,48.2,32.9,98,75,43,29.82,29.59,9,3,26,0.05
2014-10-5,59.2,46.4,34.4,43.0,38.0,33.1,97,75,44,29.97,29.82,8,1,20,0.00
2014-10-6,70.3,54.4,35.6,52.1,45.1,35.0,100,74,50,29.99,29.86,7,2,24,0.02
2014-10-7,66.9,60.1,55.0,58.7,55.3,52.7,97,85,62,30.01,29.81,4,1,13,0.46
2014-10-8,71.1,60.2,49.9,57.8,51.3,44.8,99,76,44,30.00,29.82,9,2,24,0.00
2014-10-9,70.1,54.9,39.1,49.7,44.1,38.0,99,71,36,30.12,30.00,7,1,21,0.00
2014-10-10,57.8,53.3,47.7,53.4,50.4,46.3,97,90,81,30.13,30.06,2,0,6,0.03
2014-10-11,58.0,51.9,47.9,52.8,50.3,46.8,100,94,77,30.18,30.01,4,1,12,0.61
2014-10-12,62.3,52.9,41.9,51.0,46.4,41.4,99,80,55,30.30,30.18,2,0,8,0.00
2014-10-13,64.3,59.3,53.8,61.5,56.9,50.9,97,92,87,30.27,30.17,2,0,11,0.00
2014-10-14,76.7,70.2,59.9,67.4,65.8,59.0,99,87,70,30.16,29.90,9,4,25,0.00
2014-10-15,72.5,65.6,55.1,68.4,64.0,54.8,99,95,84,29.90,29.71,9,3,26,2.07
2014-10-16,66.6,58.7,51.3,60.9,56.1,51.3,100,92,66,29.74,29.69,3,0,10,0.01
2014-10-17,70.4,61.2,52.0,55.8,53.4,50.6,95,77,52,29.80,29.63,4,1,14,0.00
2014-10-18,62.6,57.0,48.3,54.0,48.0,41.6,87,72,57,29.86,29.58,9,3,26,0.00
2014-10-19,56.3,48.6,38.9,43.2,36.1,31.2,89,63,41,30.11,29.86,10,4,24,0.00
2014-10-20,60.9,47.3,31.9,50.0,40.4,31.1,99,79,52,30.12,29.91,5,1,17,0.01
2014-10-21,64.0,52.8,46.0,54.3,49.4,45.6,100,90,57,29.93,29.81,4,1,13,0.08
2014-10-22,56.7,51.9,48.9,50.4,48.0,43.2,100,87,71,30.01,29.90,9,4,21,0.06
2014-10-23,62.3,55.2,48.6,47.4,44.5,41.7,81,68,52,29.99,29.87,13,5,26,0.00
2014-10-24,64.3,54.9,44.1,44.7,41.9,36.0,84,63,35,30.01,29.90,8,3,22,0.00
2014-10-25,71.1,53.4,36.0,50.5,43.5,35.0,99,73,42,29.98,29.66,8,1,20,0.00
2014-10-26,65.5,58.5,48.9,51.1,36.8,32.1,76,45,32,29.92,29.65,10,4,26,0.00
2014-10-27,69.8,50.1,31.5,41.8,36.1,30.0,97,64,29,30.09,29.92,2,0,8,0.00
2014-10-28,81.2,63.7,46.0,57.2,50.3,40.8,93,65,37,30.03,29.85,4,1,13,0.00
2014-10-29,68.6,56.5,40.9,54.9,50.8,40.4,98,82,61,30.00,29.86,5,1,13,0.13
2014-10-30,54.5,44.8,35.5,45.4,39.1,35.2,100,82,59,30.10,30.00,6,1,13,0.01
2014-10-31,52.6,44.8,35.6,43.8,38.9,34.0,98,81,57,30.05,29.86,3,0,10,0.00
2014-11-1,49.6,45.1,40.8,41.4,38.4,32.3,90,78,63,29.97,29.81,12,5,26,0.00
2014-11-2,47.7,41.7,37.8,32.0,27.0,21.4,74,57,36,30.28,29.98,15,9,31,0.00
2014-11-3,58.4,46.2,34.1,31.4,24.9,20.4,68,46,24,30.35,30.20,5,1,16,0.00
2014-11-4,70.3,53.1,34.3,40.1,33.8,30.3,92,54,23,30.22,30.02,2,0,10,0.00
2014-11-5,62.7,57.9,51.4,50.6,44.7,34.1,94,63,39,30.18,30.03,3,0,10,0.03
2014-11-6,59.5,53.1,48.2,54.4,49.3,41.3,99,87,58,30.10,29.65,10,1,21,0.37
2014-11-7,49.8,44.8,38.8,42.9,35.4,28.6,84,70,52,30.05,29.70,16,5,33,0.00
2014-11-8,48.0,41.0,28.7,33.4,29.1,24.5,88,64,47,30.08,29.89,7,2,17,0.00
2014-11-9,55.6,44.7,32.4,38.0,34.0,30.1,91,68,42,30.04,29.89,6,1,19,0.00
2014-11-10,63.4,47.4,30.7,43.8,37.2,29.1,98,71,44,30.17,30.03,7,2,19,0.00
2014-11-11,66.1,52.2,33.5,57.5,45.4,32.7,99,80,49,30.08,29.85,4,1,14,0.00
2014-11-12,55.9,45.7,32.5,51.5,37.8,27.3,100,76,46,30.17,29.84,11,3,22,0.00
2014-11-13,39.6,34.7,27.8,34.1,29.9,25.5,95,83,65,30.18,30.08,8,1,24,0.01
2014-11-14,37.5,32.4,25.4,27.2,21.6,18.1,78,65,45,30.32,30.09,10,4,22,0.00
2014-11-15,41.1,29.7,21.0,25.3,20.3,16.5,86,69,44,30.45,30.32,5,1,12,0.00
2014-11-16,41.6,36.1,24.7,32.7,23.2,18.6,87,61,40,30.35,30.03,5,2,16,0.21
2014-11-17,43.2,38.8,34.0,41.3,34.0,20.3,93,84,54,30.01,29.54,13,2,25,0.55
2014-11-18,33.1,23.3,19.7,18.2,3.6,-0.5,55,43,32,30.26,29.82,15,9,30,0.00
2014-11-19,33.8,25.2,16.2,10.8,6.6,4.1,62,46,34,30.36,29.98,9,4,21,0.00
2014-11-20,45.8,36.2,29.1,23.6,13.3,7.5,49,39,28,30.14,29.91,13,5,29,0.00
2014-11-21,32.9,27.0,17.7,9.3,7.1,4.9,68,43,32,30.57,30.15,12,4,25,0.00
2014-11-22,43.9,28.0,12.3,19.3,12.9,7.1,85,57,31,30.56,30.22,5,1,12,0.00
2014-11-23,58.3,46.2,29.4,51.5,28.4,18.0,91,53,28,30.22,29.74,8,1,25,0.17
2014-11-24,68.4,62.3,54.5,56.6,52.2,39.2,91,71,45,29.76,29.51,13,7,30,0.13
2014-11-25,58.0,48.0,34.7,43.7,30.8,27.2,80,53,37,30.17,29.77,9,3,19,0.00
2014-11-26,41.2,35.2,32.1,35.5,31.4,29.9,93,86,66,30.18,29.96,5,1,13,0.92
2014-11-27,38.8,34.3,30.9,34.5,29.4,22.3,93,83,65,30.19,30.00,6,1,16,0.00
2014-11-28,33.7,30.0,22.7,24.3,17.9,13.6,80,61,44,30.33,30.18,11,4,22,0.00
2014-11-29,42.3,34.9,23.6,26.9,23.2,17.7,87,64,47,30.33,30.12,7,3,20,0.00
2014-11-30,60.2,49.3,36.5,43.8,35.4,26.7,77,59,47,30.12,30.00,6,2,18,0.00
2014-12-1,65.2,52.8,39.5,51.8,42.0,24.7,85,67,55,30.49,30.08,11,3,21,0.17
2014-12-2,38.8,34.2,32.2,31.6,28.0,23.4,93,79,60,30.60,30.30,5,1,12,0.39
2014-12-3,50.8,39.9,33.5,44.0,34.5,23.3,94,82,57,30.34,30.03,11,2,27,0.02
2014-12-4,39.9,36.0,30.1,29.7,25.1,22.4,81,65,50,30.49,30.33,4,1,11,0.01
2014-12-5,39.2,37.8,36.8,36.4,29.7,24.2,91,73,59,30.52,30.30,4,1,10,0.25
2014-12-6,42.5,40.3,38.6,40.9,38.0,33.6,94,92,78,30.32,30.05,11,2,22,0.86
2014-12-7,43.2,35.7,27.2,33.2,20.3,14.0,77,55,32,30.61,30.32,12,4,21,0.00
2014-12-8,32.9,29.6,25.7,25.9,19.1,11.1,88,65,49,30.62,30.31,5,2,12,0.12
2014-12-9,40.1,34.5,29.1,37.1,31.8,26.3,93,90,74,30.31,29.92,7,1,16,0.45
2014-12-10,42.1,38.4,34.4,32.6,28.6,22.5,80,68,61,29.93,29.83,13,6,30,0.00
2014-12-11,36.0,33.7,31.3,22.9,18.2,8.3,65,54,32,30.00,29.82,15,7,33,0.00
2014-12-12,37.5,35.0,29.3,24.0,21.2,12.4,68,57,37,30.16,29.99,10,4,19,0.00
2014-12-13,39.6,34.4,28.7,27.9,25.0,20.4,76,68,59,30.15,30.03,8,2,17,0.00
2014-12-14,49.4,44.9,34.4,37.3,35.0,27.0,78,68,62,30.03,29.96,9,3,20,0.00
2014-12-15,55.9,44.6,35.2,40.9,37.2,32.0,88,76,57,30.09,30.00,3,0,11,0.00
2014-12-16,42.6,37.1,28.2,41.0,35.1,25.9,94,93,88,30.03,29.86,4,0,11,0.14
2014-12-17,46.0,41.3,35.0,40.0,31.2,20.2,94,69,47,30.08,29.91,9,4,21,0.00
2014-12-18,35.8,33.0,31.0,22.0,20.2,16.7,65,59,52,30.19,30.08,12,5,27,0.00
2014-12-19,37.2,32.8,28.8,23.0,21.2,18.1,67,62,54,30.28,30.11,11,4,24,0.00
2014-12-20,34.0,27.7,18.9,22.4,19.1,14.2,87,71,56,30.34,30.26,3,0,7,0.00
2014-12-21,37.9,30.2,24.5,25.2,22.1,19.2,84,72,53,30.38,30.30,3,0,8,0.00
2014-12-22,34.3,28.7,18.9,30.7,24.7,15.1,93,85,70,30.34,30.12,3,0,8,0.23
2014-12-23,38.9,35.7,32.5,37.3,34.2,30.7,94,94,93,30.13,30.01,1,0,3,0.09
2014-12-24,53.2,44.9,38.9,52.1,43.7,37.3,96,96,94,30.04,29.48,8,1,22,0.67
2014-12-25,50.4,44.2,34.0,49.0,33.0,26.9,95,66,47,30.23,29.58,13,4,29,0.13
2014-12-26,50.1,36.2,25.3,34.1,28.4,22.0,93,75,50,30.36,30.21,3,0,10,0.00
2014-12-27,58.6,40.9,27.6,36.2,28.8,25.0,93,67,33,30.33,30.03,1,0,6,0.00
2014-12-28,54.7,46.5,37.3,42.1,36.6,28.7,83,69,60,30.13,29.91,7,3,17,0.00
2014-12-29,43.3,37.1,29.4,29.3,24.3,20.5,76,60,45,30.30,30.13,4,1,11,0.00
2014-12-30,36.2,28.6,20.6,20.4,14.5,8.9,81,57,33,30.47,30.30,6,1,13,0.00
2014-12-31,32.8,26.6,20.0,13.6,7.8,3.0,70,45,30,30.47,30.24,7,3,17,0.00
2015-1-1,42.5,33.3,23.9,19.1,11.5,3.2,48,40,30,30.24,30.03,13,3,27,0.00
2015-1-2,42.5,34.8,24.2,20.0,17.3,13.4,76,50,37,30.44,30.09,6,2,13,0.00